createdAt,value
2018-10-18T00:00:28.976Z,11.10
2018-10-18T00:02:56.784Z,11.00
2018-10-18T00:05:24.590Z,11.00
2018-10-18T00:07:52.387Z,11.00
2018-10-18T00:10:20.194Z,10.90
2018-10-18T00:12:48.352Z,10.90
2018-10-18T00:15:16.098Z,10.90
2018-10-18T00:17:44.886Z,10.80
2018-10-18T00:20:12.957Z,10.90
2018-10-18T00:22:40.745Z,10.90
2018-10-18T00:25:08.989Z,10.80
2018-10-18T00:27:37.101Z,10.80
2018-10-18T00:30:05.937Z,10.70
2018-10-18T00:32:33.815Z,10.60
2018-10-18T00:35:01.608Z,10.60
2018-10-18T00:37:29.392Z,10.60
2018-10-18T00:39:57.225Z,10.60
2018-10-18T00:42:24.979Z,10.60
2018-10-18T00:44:52.948Z,10.60
2018-10-18T00:47:20.892Z,10.50
2018-10-18T00:49:48.618Z,10.50
2018-10-18T00:52:16.547Z,10.60
2018-10-18T00:54:44.315Z,10.60
2018-10-18T00:57:12.063Z,10.70
2018-10-18T00:59:39.775Z,10.70
2018-10-18T01:02:07.691Z,10.70
2018-10-18T01:04:35.426Z,10.70
2018-10-18T01:07:03.239Z,10.60
2018-10-18T01:09:31.076Z,10.60
2018-10-18T01:11:58.888Z,10.60
2018-10-18T01:14:27.318Z,10.60
2018-10-18T01:17:00.639Z,10.70
2018-10-18T01:19:28.426Z,10.60
2018-10-18T01:21:56.272Z,10.50
2018-10-18T01:24:23.994Z,10.50
2018-10-18T01:26:51.730Z,10.60
2018-10-18T01:29:19.482Z,10.60
2018-10-18T01:31:47.235Z,10.50
2018-10-18T01:34:15.295Z,10.40
2018-10-18T01:36:43.079Z,10.30
2018-10-18T01:39:11.130Z,10.20
2018-10-18T01:41:39.488Z,10.10
2018-10-18T01:44:07.280Z,10.10
2018-10-18T01:46:35.087Z,10.10
2018-10-18T01:49:02.815Z,10.20
2018-10-18T01:51:30.542Z,10.20
2018-10-18T01:53:58.405Z,10.30
2018-10-18T01:56:26.096Z,10.40
2018-10-18T01:58:54.059Z,10.50
2018-10-18T02:01:21.900Z,10.50
2018-10-18T02:03:49.673Z,10.50
2018-10-18T02:06:17.534Z,10.50
2018-10-18T02:08:45.312Z,10.50
2018-10-18T02:11:13.139Z,10.70
2018-10-18T02:13:40.948Z,10.80
2018-10-18T02:16:09.175Z,10.90
2018-10-18T02:18:37.080Z,10.90
2018-10-18T02:21:05.459Z,10.90
2018-10-18T02:23:33.221Z,10.90
2018-10-18T02:26:01.131Z,10.80
2018-10-18T02:28:28.964Z,10.80
2018-10-18T02:30:57.033Z,10.80
2018-10-18T02:33:24.792Z,10.80
2018-10-18T02:35:52.766Z,10.90
2018-10-18T02:38:20.747Z,10.90
2018-10-18T02:40:48.482Z,10.90
2018-10-18T02:43:16.375Z,11.00
2018-10-18T02:45:44.240Z,11.00
2018-10-18T02:48:12.080Z,11.00
2018-10-18T02:50:39.981Z,11.00
2018-10-18T02:53:07.914Z,11.10
2018-10-18T02:55:35.770Z,11.20
2018-10-18T02:58:03.631Z,11.30
2018-10-18T03:00:31.630Z,11.30
2018-10-18T03:02:59.495Z,11.30
2018-10-18T03:05:27.256Z,11.20
2018-10-18T03:07:54.972Z,11.20
2018-10-18T03:10:22.889Z,11.20
2018-10-18T03:12:50.695Z,11.10
2018-10-18T03:15:18.503Z,11.10
2018-10-18T03:17:46.279Z,11.10
2018-10-18T03:20:14.036Z,11.20
2018-10-18T03:22:41.963Z,11.20
2018-10-18T03:25:10.422Z,11.30
2018-10-18T03:27:38.530Z,11.40
2018-10-18T03:30:06.868Z,11.50
2018-10-18T03:32:34.493Z,11.60
2018-10-18T03:35:02.331Z,11.60
2018-10-18T03:37:30.402Z,11.70
2018-10-18T03:39:58.135Z,11.70
2018-10-18T03:42:26.078Z,11.60
2018-10-18T03:44:53.954Z,11.60
2018-10-18T03:47:21.670Z,11.60
2018-10-18T03:49:49.487Z,11.60
2018-10-18T03:52:17.195Z,11.60
2018-10-18T03:54:45.007Z,11.70
2018-10-18T03:57:12.896Z,11.80
2018-10-18T03:59:40.681Z,11.80
2018-10-18T04:02:08.482Z,11.80
2018-10-18T04:04:36.450Z,11.80
2018-10-18T04:07:04.205Z,11.90
2018-10-18T04:09:32.183Z,11.90
2018-10-18T04:11:59.965Z,11.90
2018-10-18T04:14:27.702Z,11.90
2018-10-18T04:16:55.749Z,11.80
2018-10-18T04:19:23.598Z,11.80
2018-10-18T04:21:51.335Z,11.90
2018-10-18T04:24:19.456Z,11.90
2018-10-18T04:26:47.359Z,12.00
2018-10-18T04:29:15.115Z,12.00
2018-10-18T04:31:42.895Z,12.10
2018-10-18T04:34:10.608Z,12.00
2018-10-18T04:36:38.617Z,12.00
2018-10-18T04:39:07.275Z,12.10
2018-10-18T04:41:35.014Z,12.10
2018-10-18T04:44:02.890Z,12.20
2018-10-18T04:46:30.768Z,12.30
2018-10-18T04:48:58.547Z,12.30
2018-10-18T04:51:26.301Z,12.20
2018-10-18T04:53:54.076Z,12.20
2018-10-18T04:56:21.975Z,12.20
2018-10-18T04:58:49.686Z,12.10
2018-10-18T05:01:17.586Z,12.10
2018-10-18T05:03:45.611Z,12.10
2018-10-18T05:06:13.520Z,12.20
2018-10-18T05:08:41.262Z,12.30
2018-10-18T05:11:09.247Z,12.30
2018-10-18T05:13:36.931Z,12.40
2018-10-18T05:16:05.268Z,12.40
2018-10-18T05:18:33.261Z,12.50
2018-10-18T05:21:01.017Z,12.40
2018-10-18T05:23:28.799Z,12.40
2018-10-18T05:25:56.823Z,12.40
2018-10-18T05:28:24.585Z,12.50
2018-10-18T05:30:52.394Z,12.40
2018-10-18T05:33:20.153Z,12.50
2018-10-18T05:35:47.994Z,12.50
2018-10-18T05:38:15.718Z,12.50
2018-10-18T05:40:43.534Z,12.50
2018-10-18T05:43:11.463Z,12.50
2018-10-18T05:45:39.270Z,12.50
2018-10-18T05:48:07.045Z,12.60
2018-10-18T05:50:34.901Z,12.70
2018-10-18T05:53:02.704Z,12.60
2018-10-18T05:55:30.518Z,12.60
2018-10-18T05:57:58.301Z,12.50
2018-10-18T06:00:26.224Z,12.50
2018-10-18T06:02:53.919Z,12.50
2018-10-18T06:05:22.059Z,12.40
2018-10-18T06:07:50.688Z,12.50
2018-10-18T06:10:24.897Z,12.50
2018-10-18T06:12:53.088Z,12.50
2018-10-18T06:15:21.255Z,12.40
2018-10-18T06:17:49.148Z,12.40
2018-10-18T06:20:17.331Z,12.40
2018-10-18T06:22:45.405Z,12.30
2018-10-18T06:25:13.375Z,12.30
2018-10-18T06:27:41.355Z,12.30
2018-10-18T06:30:10.732Z,12.40
2018-10-18T06:32:38.650Z,12.40
2018-10-18T06:35:07.262Z,12.50
2018-10-18T06:37:35.471Z,12.50
2018-10-18T06:40:03.606Z,12.50
2018-10-18T06:42:31.449Z,12.40
2018-10-18T06:44:59.458Z,12.50
2018-10-18T06:47:27.292Z,12.60
2018-10-18T06:49:55.096Z,12.70
2018-10-18T06:52:22.936Z,12.60
2018-10-18T06:54:50.698Z,12.60
2018-10-18T06:57:18.663Z,12.70
2018-10-18T06:59:46.529Z,12.80
2018-10-18T07:02:14.395Z,12.80
2018-10-18T07:04:42.170Z,12.80
2018-10-18T07:07:09.943Z,12.70
2018-10-18T07:09:37.749Z,12.80
2018-10-18T07:12:05.882Z,12.70
2018-10-18T07:14:33.606Z,12.60
2018-10-18T07:17:01.328Z,12.60
2018-10-18T07:19:29.154Z,12.70
2018-10-18T07:21:56.875Z,12.80
2018-10-18T07:24:24.890Z,12.90
2018-10-18T07:26:52.615Z,13.00
2018-10-18T07:29:20.557Z,13.10
2018-10-18T07:31:48.470Z,13.10
2018-10-18T07:34:16.343Z,13.20
2018-10-18T07:36:44.511Z,13.30
2018-10-18T07:39:14.384Z,13.20
2018-10-18T07:41:43.090Z,13.30
2018-10-18T07:44:11.396Z,13.30
2018-10-18T07:46:39.276Z,13.50
2018-10-18T07:49:07.399Z,13.50
2018-10-18T07:51:35.438Z,13.60
2018-10-18T07:54:03.269Z,13.60
2018-10-18T07:56:31.538Z,13.70
2018-10-18T07:58:59.575Z,13.80
2018-10-18T08:01:27.513Z,13.90
2018-10-18T08:03:55.283Z,14.00
2018-10-18T08:06:23.260Z,14.10
2018-10-18T08:08:51.166Z,14.00
2018-10-18T08:11:19.003Z,14.10
2018-10-18T08:13:47.030Z,14.10
2018-10-18T08:16:14.991Z,14.20
2018-10-18T08:18:42.914Z,14.20
2018-10-18T08:21:10.731Z,14.30
2018-10-18T08:23:38.659Z,14.20
2018-10-18T08:26:06.543Z,13.90
2018-10-18T08:28:34.327Z,13.90
2018-10-18T08:31:02.171Z,14.00
2018-10-18T08:33:29.902Z,14.10
2018-10-18T08:35:57.721Z,14.10
2018-10-18T08:38:25.562Z,14.10
2018-10-18T08:40:53.414Z,14.10
2018-10-18T08:43:22.004Z,14.20
2018-10-18T08:45:49.949Z,14.20
2018-10-18T08:48:17.770Z,14.20
2018-10-18T08:50:45.540Z,14.10
2018-10-18T08:53:13.599Z,14.30
2018-10-18T08:55:41.393Z,14.40
2018-10-18T08:58:09.194Z,14.40
2018-10-18T09:00:36.958Z,14.50
2018-10-18T09:03:05.043Z,14.60
2018-10-18T09:05:32.840Z,14.50
2018-10-18T09:08:00.766Z,14.50
2018-10-18T09:10:28.488Z,14.50
2018-10-18T09:12:56.265Z,14.50
2018-10-18T09:15:23.990Z,14.60
2018-10-18T09:17:51.740Z,14.40
2018-10-18T09:20:19.585Z,14.50
2018-10-18T09:22:47.376Z,14.60
2018-10-18T09:25:15.213Z,14.60
2018-10-18T09:27:42.965Z,14.50
2018-10-18T09:30:11.979Z,14.60
2018-10-18T09:32:39.839Z,14.70
2018-10-18T09:35:07.763Z,14.80
2018-10-18T09:37:35.625Z,15.00
2018-10-18T09:40:03.575Z,15.00
2018-10-18T09:42:31.454Z,15.10
2018-10-18T09:44:59.582Z,15.20
2018-10-18T09:47:27.300Z,15.30
2018-10-18T09:49:55.126Z,15.20
2018-10-18T09:52:22.890Z,15.30
2018-10-18T09:54:50.779Z,15.40
2018-10-18T09:57:18.570Z,15.60
2018-10-18T09:59:46.457Z,15.60
2018-10-18T10:02:19.840Z,15.70
2018-10-18T10:04:47.928Z,15.60
2018-10-18T10:07:15.888Z,15.60
2018-10-18T10:09:43.611Z,15.80
2018-10-18T10:12:11.424Z,15.90
2018-10-18T10:14:39.245Z,16.00
2018-10-18T10:17:07.508Z,15.90
2018-10-18T10:19:35.357Z,15.90
2018-10-18T10:22:03.230Z,16.00
2018-10-18T10:24:31.138Z,16.20
2018-10-18T10:26:59.130Z,16.30
2018-10-18T10:29:27.032Z,16.40
2018-10-18T10:31:54.957Z,16.50
2018-10-18T10:34:22.951Z,16.60
2018-10-18T10:36:50.754Z,16.70
2018-10-18T10:39:18.623Z,16.80
2018-10-18T10:41:46.413Z,16.90
2018-10-18T10:44:14.440Z,16.80
2018-10-18T10:46:42.342Z,16.90
2018-10-18T10:49:10.600Z,16.90
2018-10-18T10:51:38.421Z,16.70
2018-10-18T10:54:07.226Z,16.80
2018-10-18T10:56:34.975Z,16.70
2018-10-18T10:59:07.251Z,16.80
2018-10-18T11:01:34.998Z,16.90
2018-10-18T11:04:02.795Z,16.80
2018-10-18T11:06:30.658Z,16.90
2018-10-18T11:08:58.598Z,16.90
2018-10-18T11:11:26.581Z,16.80
2018-10-18T11:13:54.480Z,16.70
2018-10-18T11:16:22.416Z,16.70
2018-10-18T11:18:50.395Z,16.70
2018-10-18T11:21:18.885Z,16.60
2018-10-18T11:23:46.862Z,16.70
2018-10-18T11:26:14.816Z,16.70
2018-10-18T11:28:42.657Z,16.60
2018-10-18T11:31:10.553Z,16.60
2018-10-18T11:33:38.415Z,16.50
2018-10-18T11:36:06.580Z,16.40
2018-10-18T11:38:34.287Z,16.40
2018-10-18T11:41:02.083Z,16.50
2018-10-18T11:43:29.973Z,16.60
2018-10-18T11:45:57.822Z,16.90
2018-10-18T11:48:25.832Z,16.80
2018-10-18T11:50:53.874Z,16.80
2018-10-18T11:53:21.711Z,16.60
2018-10-18T11:55:49.866Z,16.40
2018-10-18T11:58:17.725Z,16.50
2018-10-18T12:00:45.564Z,16.60
2018-10-18T12:03:13.432Z,16.60
2018-10-18T12:05:41.299Z,16.80
2018-10-18T12:08:09.336Z,16.80
2018-10-18T12:10:37.070Z,16.80
2018-10-18T12:13:05.095Z,16.80
2018-10-18T12:15:32.897Z,16.80
2018-10-18T12:18:00.951Z,16.80
2018-10-18T12:20:28.950Z,16.90
2018-10-18T12:22:56.828Z,17.00
2018-10-18T12:25:24.600Z,16.70
2018-10-18T12:27:52.502Z,16.60
2018-10-18T12:30:20.310Z,16.80
2018-10-18T12:32:48.097Z,16.90
2018-10-18T12:35:16.067Z,16.80
2018-10-18T12:37:43.877Z,16.90
2018-10-18T12:40:11.740Z,16.80
2018-10-18T12:42:41.358Z,16.80
2018-10-18T12:45:10.472Z,16.70
2018-10-18T12:47:38.237Z,16.70
2018-10-18T12:50:06.467Z,16.80
2018-10-18T12:52:34.465Z,16.90
2018-10-18T12:55:02.424Z,16.90
2018-10-18T12:57:30.570Z,17.00
2018-10-18T12:59:58.356Z,17.20
2018-10-18T13:02:26.276Z,17.30
2018-10-18T13:04:54.175Z,17.20
2018-10-18T13:07:22.124Z,17.40
2018-10-18T13:09:50.079Z,17.40
2018-10-18T13:12:17.984Z,17.30
2018-10-18T13:14:45.780Z,17.30
2018-10-18T13:17:13.600Z,17.20
2018-10-18T13:19:41.469Z,17.10
2018-10-18T13:22:09.355Z,16.90
2018-10-18T13:24:37.310Z,16.90
2018-10-18T13:27:05.406Z,16.90
2018-10-18T13:29:33.478Z,17.00
2018-10-18T13:32:01.219Z,17.10
2018-10-18T13:34:29.163Z,17.20
2018-10-18T13:36:56.951Z,17.20
2018-10-18T13:39:24.815Z,17.00
2018-10-18T13:41:52.589Z,17.00
2018-10-18T13:44:20.555Z,17.10
2018-10-18T13:46:48.267Z,17.30
2018-10-18T13:49:15.999Z,17.30
2018-10-18T13:51:44.042Z,17.40
2018-10-18T13:56:39.473Z,17.70
2018-10-18T14:00:10.816Z,17.60
2018-10-18T14:02:38.552Z,17.50
2018-10-18T14:05:06.632Z,17.30
2018-10-18T14:07:34.412Z,17.20
2018-10-18T14:10:02.187Z,17.20
2018-10-18T14:12:30.033Z,17.20
2018-10-18T14:14:57.915Z,17.00
2018-10-18T14:17:25.894Z,17.00
2018-10-18T14:19:53.633Z,16.90
2018-10-18T14:22:21.516Z,16.90
2018-10-18T14:24:49.328Z,16.70
2018-10-18T14:27:17.257Z,16.70
2018-10-18T14:29:45.026Z,16.50
2018-10-18T14:32:12.931Z,16.40
2018-10-18T14:34:40.691Z,16.40
2018-10-18T14:37:08.609Z,16.30
2018-10-18T14:39:36.630Z,16.40
2018-10-18T14:42:04.583Z,16.50
2018-10-18T14:44:32.491Z,16.60
2018-10-18T14:47:00.298Z,16.80
2018-10-18T14:49:28.023Z,16.80
2018-10-18T14:51:55.856Z,16.90
2018-10-18T14:54:23.922Z,16.90
2018-10-18T14:56:51.876Z,16.90
2018-10-18T14:59:19.811Z,17.00
2018-10-18T15:01:47.596Z,17.00
2018-10-18T15:04:15.572Z,17.00
2018-10-18T15:06:43.518Z,17.00
2018-10-18T15:09:11.322Z,17.10
2018-10-18T15:11:39.259Z,17.10
2018-10-18T15:14:07.390Z,17.20
2018-10-18T15:16:35.285Z,17.30
2018-10-18T15:19:03.037Z,17.20
2018-10-18T15:21:31.081Z,17.10
2018-10-18T15:23:59.100Z,17.00
2018-10-18T15:26:27.179Z,17.00
2018-10-18T15:28:55.071Z,16.80
2018-10-18T15:31:22.920Z,16.60
2018-10-18T15:33:50.857Z,16.40
2018-10-18T15:36:18.675Z,16.30
2018-10-18T15:38:46.617Z,16.30
2018-10-18T15:41:14.449Z,16.30
2018-10-18T15:43:42.419Z,16.20
2018-10-18T15:46:10.251Z,16.10
2018-10-18T15:48:38.221Z,16.10
2018-10-18T15:51:06.089Z,16.20
2018-10-18T15:53:33.974Z,16.00
2018-10-18T15:56:01.640Z,16.10
2018-10-18T15:58:29.527Z,16.10
2018-10-18T16:00:57.424Z,16.10
2018-10-18T16:03:25.503Z,16.00
2018-10-18T16:05:53.435Z,16.00
2018-10-18T16:08:21.241Z,16.00
2018-10-18T16:10:49.180Z,16.00
2018-10-18T16:13:17.056Z,16.00
2018-10-18T16:15:44.888Z,16.10
2018-10-18T16:18:13.071Z,16.10
2018-10-18T16:20:41.000Z,16.00
2018-10-18T16:23:08.880Z,15.90
2018-10-18T16:25:36.666Z,15.90
2018-10-18T16:28:04.646Z,15.80
2018-10-18T16:30:32.924Z,15.70
2018-10-18T16:33:00.756Z,15.60
2018-10-18T16:35:28.554Z,15.60
2018-10-18T16:37:56.623Z,15.60
2018-10-18T16:40:24.619Z,15.50
2018-10-18T16:42:52.655Z,15.50
2018-10-18T16:45:20.548Z,15.60
2018-10-18T16:47:48.521Z,15.50
2018-10-18T16:50:16.524Z,15.40
2018-10-18T16:52:44.421Z,15.50
2018-10-18T16:55:12.430Z,15.40
2018-10-18T16:57:40.481Z,15.30
2018-10-18T17:00:08.854Z,15.30
2018-10-18T17:02:36.801Z,15.20
2018-10-18T17:05:04.810Z,15.10
2018-10-18T17:07:32.847Z,15.00
2018-10-18T17:10:00.911Z,15.00
2018-10-18T17:12:28.741Z,14.90
2018-10-18T17:14:56.669Z,14.90
2018-10-18T17:17:24.529Z,14.90
2018-10-18T17:19:52.686Z,14.90
2018-10-18T17:22:20.532Z,14.90
2018-10-18T17:24:48.440Z,14.90
2018-10-18T17:27:16.657Z,14.80
2018-10-18T17:29:44.629Z,14.70
2018-10-18T17:32:12.695Z,14.80
2018-10-18T17:34:40.459Z,14.80
2018-10-18T17:37:08.464Z,14.90
2018-10-18T17:39:36.545Z,14.90
2018-10-18T17:42:04.882Z,15.00
2018-10-18T17:44:33.260Z,15.00
2018-10-18T17:47:01.294Z,15.10
2018-10-18T17:49:29.139Z,15.00
2018-10-18T17:51:56.982Z,15.00
2018-10-18T17:54:24.805Z,15.00
2018-10-18T17:56:52.656Z,15.00
2018-10-18T17:59:20.527Z,15.00
2018-10-18T18:01:48.526Z,14.80
2018-10-18T18:04:16.420Z,14.80
2018-10-18T18:06:44.285Z,14.80
2018-10-18T18:09:12.146Z,14.70
2018-10-18T18:11:40.029Z,14.60
2018-10-18T18:14:07.989Z,14.70
2018-10-18T18:16:35.969Z,14.60
2018-10-18T18:19:03.899Z,14.50
2018-10-18T18:21:31.951Z,14.50
2018-10-18T18:23:59.875Z,14.50
2018-10-18T18:26:32.715Z,14.50
2018-10-18T18:28:55.834Z,14.40
2018-10-18T18:31:23.682Z,14.20
2018-10-18T18:33:51.723Z,14.30
2018-10-18T18:36:19.617Z,14.20
2018-10-18T18:38:47.552Z,14.10
2018-10-18T18:41:15.491Z,14.00
2018-10-18T18:43:43.677Z,14.00
2018-10-18T18:46:11.610Z,13.90
2018-10-18T18:48:39.616Z,13.80
2018-10-18T18:51:07.610Z,13.70
2018-10-18T18:53:35.722Z,13.70
2018-10-18T18:56:03.880Z,13.70
2018-10-18T18:58:32.102Z,13.60
2018-10-18T19:00:59.941Z,13.50
2018-10-18T19:03:27.882Z,13.50
2018-10-18T19:05:58.033Z,13.50
2018-10-18T19:08:26.606Z,13.60
2018-10-18T19:10:54.676Z,13.50
2018-10-18T19:13:22.912Z,13.40
2018-10-18T19:15:50.788Z,13.50
2018-10-18T19:18:19.128Z,13.50
2018-10-18T19:20:47.097Z,13.50
2018-10-18T19:23:15.163Z,13.50
2018-10-18T19:25:43.100Z,13.60
2018-10-18T19:28:11.116Z,13.60
2018-10-18T19:30:39.097Z,13.50
2018-10-18T19:33:07.233Z,13.60
2018-10-18T19:35:35.147Z,13.60
2018-10-18T19:38:03.001Z,13.70
2018-10-18T19:40:30.980Z,13.70
2018-10-18T19:42:59.077Z,13.70
2018-10-18T19:45:27.213Z,13.70
2018-10-18T19:47:55.211Z,13.80
2018-10-18T19:50:23.192Z,13.80
2018-10-18T19:52:51.024Z,13.70
2018-10-18T19:55:18.995Z,13.70
2018-10-18T19:57:46.938Z,13.70
2018-10-18T20:00:15.023Z,13.70
2018-10-18T20:02:43.204Z,13.70
2018-10-18T20:05:11.187Z,13.50
2018-10-18T20:07:39.160Z,13.50
2018-10-18T20:10:07.406Z,13.50
2018-10-18T20:12:35.315Z,13.40
2018-10-18T20:15:03.443Z,13.30
2018-10-18T20:17:31.339Z,13.30
2018-10-18T20:19:59.421Z,13.20
2018-10-18T20:22:27.389Z,13.10
2018-10-18T20:24:55.463Z,13.10
2018-10-18T20:27:23.322Z,13.10
2018-10-18T20:29:51.400Z,13.10
2018-10-18T20:32:19.661Z,13.10
2018-10-18T20:34:47.553Z,13.10
2018-10-18T20:37:15.512Z,13.10
2018-10-18T20:39:43.525Z,13.10
2018-10-18T20:42:11.491Z,13.10
2018-10-18T20:44:39.610Z,13.10
2018-10-18T20:47:07.731Z,13.20
2018-10-18T20:49:35.540Z,13.20
2018-10-18T20:52:03.714Z,13.20
2018-10-18T20:54:31.712Z,13.20
2018-10-18T20:56:59.617Z,13.20
2018-10-18T20:59:27.441Z,13.20
2018-10-18T21:01:55.334Z,13.20
2018-10-18T21:04:23.350Z,13.20
2018-10-18T21:06:51.344Z,13.20
2018-10-18T21:09:19.192Z,13.20
2018-10-18T21:11:47.074Z,13.30
2018-10-18T21:14:14.849Z,13.30
2018-10-18T21:16:42.951Z,13.40
2018-10-18T21:19:10.845Z,13.40
2018-10-18T21:21:38.679Z,13.40
2018-10-18T21:24:06.505Z,13.40
2018-10-18T21:26:34.353Z,13.40
2018-10-18T21:29:02.301Z,13.30
2018-10-18T21:31:30.027Z,13.40
2018-10-18T21:33:58.066Z,13.30
2018-10-18T21:36:26.067Z,13.30
2018-10-18T21:38:53.803Z,13.30
2018-10-18T21:41:21.794Z,13.30
2018-10-18T21:43:49.847Z,13.30
2018-10-18T21:46:17.800Z,13.30
2018-10-18T21:48:45.776Z,13.30
2018-10-18T21:51:13.777Z,13.20
2018-10-18T21:53:41.625Z,13.20
2018-10-18T21:56:09.363Z,13.20
2018-10-18T21:58:37.120Z,13.20
2018-10-18T22:01:05.115Z,13.30
2018-10-18T22:03:32.918Z,13.30
2018-10-18T22:06:00.838Z,13.30
2018-10-18T22:08:28.647Z,13.20
2018-10-18T22:10:56.619Z,13.30
2018-10-18T22:13:24.380Z,13.30
2018-10-18T22:15:52.150Z,13.30
2018-10-18T22:18:19.965Z,13.30
2018-10-18T22:20:47.733Z,13.30
2018-10-18T22:23:15.661Z,13.20
2018-10-18T22:25:43.557Z,13.30
2018-10-18T22:28:11.366Z,13.30
2018-10-18T22:30:39.130Z,13.30
2018-10-18T22:33:06.939Z,13.40
2018-10-18T22:35:34.827Z,13.40
2018-10-18T22:38:02.698Z,13.50
2018-10-18T22:40:30.638Z,13.50
2018-10-18T22:42:58.537Z,13.40
2018-10-18T22:45:26.488Z,13.40
2018-10-18T22:47:54.216Z,13.40
2018-10-18T22:50:21.988Z,13.40
2018-10-18T22:52:49.782Z,13.50
2018-10-18T22:55:17.618Z,13.50
2018-10-18T22:57:45.753Z,13.50
2018-10-18T23:00:13.490Z,13.50
2018-10-18T23:02:41.235Z,13.50
2018-10-18T23:05:09.191Z,13.60
2018-10-18T23:07:36.935Z,13.50
2018-10-18T23:10:05.440Z,13.60
2018-10-18T23:12:33.221Z,13.60
2018-10-18T23:15:01.061Z,13.50
2018-10-18T23:17:28.905Z,13.60
2018-10-18T23:19:56.696Z,13.60
2018-10-18T23:22:24.668Z,13.60
2018-10-18T23:24:52.499Z,13.60
2018-10-18T23:27:19.578Z,13.70
2018-10-18T23:29:47.350Z,13.60
2018-10-18T23:32:15.264Z,13.50
2018-10-18T23:34:43.014Z,13.40
2018-10-18T23:37:10.819Z,13.30
2018-10-18T23:39:38.531Z,13.30
2018-10-18T23:42:06.317Z,13.30
2018-10-18T23:44:34.058Z,13.30
2018-10-18T23:47:01.865Z,13.30
2018-10-18T23:49:29.539Z,13.30
2018-10-18T23:51:57.400Z,13.30
2018-10-18T23:54:25.112Z,13.40
2018-10-18T23:56:52.989Z,13.40
2018-10-18T23:59:20.739Z,13.40
